KMIA/MIA METAR and TAF weather

Enter ICAO airport designator
Station Type Date Time Source
KMIA METAR 2019/08/24 20:53 UTC NOAA

KMIA 242053Z 16004KT 10SM FEW025 FEW050 FEW130 BKN250 30/24 A2990 RMK AO2 SLP123 CB DSNT E T03000244 56018


Station Type Date Time Source
KMIA Decoded METAR 2019/08/24 20:53 UTC NOAA

Station name not available
Aug 24, 2019 - 04:53 PM EDT / 2019.08.24 2053 UTC
Wind: from the SSE (160 degrees) at 5 MPH (4 KT):0
Visibility: 10 mile(s):0
Sky conditions: mostly cloudy
Weather: Cumulonimbus clouds observed
Temperature: 86.0 F (30.0 C)
Heat index: 95.9 F (35.5 C):1
Dew Point: 75.9 F (24.4 C)
Relative Humidity: 72%
Pressure (altimeter): 29.9 in. Hg (1012 hPa)
Pressure tendency: 0.05 inches (1.8 hPa) lower than three hours ago
ob: KMIA 242053Z 16004KT 10SM FEW025 FEW050 FEW130 BKN250 30/24 A2990 RMK AO2 SLP123 CB DSNT E T03000244 56018
cycle: 21

Station Type Date Time Source
KMIA TAF 2019/08/24 21:51 UTC NOAA

TAF
AMD KMIA 242048Z 2421/2524 15008KT P6SM VCSH SCT025 BKN070 BKN250
FM250000 18005KT P6SM VCSH SCT025 BKN100 BKN250
FM251000 21006KT P6SM VCSH SCT025 BKN050 BKN250
FM251600 17009KT P6SM VCTS SCT025CB BKN060 BKN250

Example: see airport list